Time;durP1;ratioP1;P1;durP2;ratioP2;P2;SDS_P1;SDS_P2;PMS_P1;PMS_P2;Temp;Humidity;BMP_temperature;BMP_pressure;BME280_temperature;BME280_humidity;BME280_pressure;Samples;Min_cycle;Max_cycle;Signal;HPM_P1;HPM_P2
2022/06/12 00:02:19;;;;;;;1.87;1.63;;;;;;;;;;5038609;28;20346;-61
2022/06/12 00:05:07;;;;;;;2.73;1.57;;;;;;;;;;5039652;28;20352;-61
2022/06/12 00:07:54;;;;;;;1.40;1.30;;;;;;;;;;5043175;28;20216;-61
2022/06/12 00:10:44;;;;;;;2.50;1.60;;;;;;;;;;5044519;28;20615;-61
2022/06/12 00:13:33;;;;;;;1.47;1.30;;;;;;;;;;5041568;28;20211;-61
2022/06/12 00:16:22;;;;;;;2.50;1.60;;;;;;;;;;5035433;28;20235;-61
2022/06/12 00:19:11;;;;;;;2.10;1.37;;;;;;;;;;5040225;28;20201;-61
2022/06/12 00:21:58;;;;;;;1.57;1.47;;;;;;;;;;5036061;28;20208;-61
2022/06/12 00:24:45;;;;;;;2.07;1.63;;;;;;;;;;5034323;28;20262;-61
2022/06/12 00:27:32;;;;;;;1.90;1.67;;;;;;;;;;5039904;28;20791;-61
2022/06/12 00:30:23;;;;;;;2.07;1.60;;;;;;;;;;5039859;28;20254;-60
2022/06/12 00:33:10;;;;;;;1.40;1.30;;;;;;;;;;5040863;28;20595;-61
2022/06/12 00:35:59;;;;;;;3.10;1.80;;;;;;;;;;5039056;28;20205;-61
2022/06/12 00:38:46;;;;;;;2.47;1.20;;;;;;;;;;5039126;28;20286;-61
2022/06/12 00:41:33;;;;;;;2.10;1.30;;;;;;;;;;5043606;28;20208;-62
2022/06/12 00:44:24;;;;;;;1.90;1.60;;;;;;;;;;5039834;28;20251;-61
2022/06/12 00:47:13;;;;;;;1.67;1.37;;;;;;;;;;5046047;28;20688;-62
2022/06/12 00:50:05;;;;;;;2.40;1.10;;;;;;;;;;5041562;28;20205;-61
2022/06/12 00:52:55;;;;;;;2.50;1.93;;;;;;;;;;5038896;28;20204;-62
2022/06/12 00:55:46;;;;;;;3.60;1.50;;;;;;;;;;5041669;28;20248;-62
2022/06/12 00:58:38;;;;;;;2.30;1.63;;;;;;;;;;5039064;28;20237;-61
2022/06/12 01:01:29;;;;;;;2.13;1.67;;;;;;;;;;5036203;28;20314;-61
2022/06/12 01:07:25;;;;;;;2.83;1.60;;;;;;;;;;5038122;28;20204;-61
2022/06/12 01:10:16;;;;;;;1.70;1.60;;;;;;;;;;5035726;28;20201;-67
2022/06/12 01:13:07;;;;;;;4.20;1.70;;;;;;;;;;5037014;28;20696;-62
2022/06/12 01:15:57;;;;;;;1.40;1.27;;;;;;;;;;5043667;28;20215;-62
2022/06/12 01:18:48;;;;;;;2.07;1.47;;;;;;;;;;5037958;28;20213;-61
2022/06/12 01:22:01;;;;;;;2.80;1.50;;;;;;;;;;5044945;28;20202;-61
2022/06/12 01:25:25;;;;;;;2.07;1.50;;;;;;;;;;5040474;28;20311;-61
2022/06/12 01:28:32;;;;;;;1.67;1.37;;;;;;;;;;5024686;28;20235;-62
2022/06/12 01:31:39;;;;;;;1.73;1.40;;;;;;;;;;5045156;28;20831;-62
2022/06/12 01:34:36;;;;;;;1.43;1.30;;;;;;;;;;5044665;28;20267;-62
2022/06/12 01:37:34;;;;;;;2.07;1.40;;;;;;;;;;5044843;28;20203;-62
2022/06/12 01:40:32;;;;;;;2.53;1.40;;;;;;;;;;5036685;28;20240;-62
2022/06/12 01:43:26;;;;;;;3.10;1.57;;;;;;;;;;5039494;28;20204;-61
2022/06/12 01:46:18;;;;;;;2.10;1.30;;;;;;;;;;5040135;28;20260;-62
2022/06/12 01:49:18;;;;;;;1.83;1.30;;;;;;;;;;5044607;28;20295;-61
2022/06/12 01:52:10;;;;;;;3.53;1.83;;;;;;;;;;5035084;28;20259;-62
2022/06/12 01:55:05;;;;;;;1.53;1.37;;;;;;;;;;5045528;28;20339;-61
2022/06/12 01:57:59;;;;;;;1.90;1.40;;;;;;;;;;5043489;28;20278;-61
2022/06/12 02:00:50;;;;;;;2.93;1.30;;;;;;;;;;5037622;28;20221;-61
2022/06/12 02:03:46;;;;;;;3.17;1.70;;;;;;;;;;5046647;28;20678;-61
2022/06/12 02:06:39;;;;;;;1.87;1.23;;;;;;;;;;5039070;28;20233;-62
2022/06/12 02:09:33;;;;;;;1.97;1.37;;;;;;;;;;5040281;28;20721;-61
2022/06/12 02:15:33;;;;;;;1.57;1.23;;;;;;;;;;5042647;28;20204;-62
2022/06/12 02:18:26;;;;;;;1.63;1.40;;;;;;;;;;5045832;28;20205;-62
2022/06/12 02:21:19;;;;;;;2.10;1.30;;;;;;;;;;5037712;28;20683;-62
2022/06/12 02:24:09;;;;;;;1.60;1.23;;;;;;;;;;5041178;28;20288;-61
2022/06/12 02:27:00;;;;;;;1.53;1.23;;;;;;;;;;5036978;28;20235;-61
2022/06/12 02:29:52;;;;;;;2.33;1.67;;;;;;;;;;5040990;28;20278;-62
2022/06/12 02:32:43;;;;;;;2.13;1.37;;;;;;;;;;5042594;28;20363;-63
2022/06/12 02:35:39;;;;;;;0.90;0.90;;;;;;;;;;5040920;28;20273;-62
2022/06/12 02:38:33;;;;;;;1.50;1.20;;;;;;;;;;5044646;28;20599;-62
2022/06/12 02:41:24;;;;;;;1.43;1.23;;;;;;;;;;5037313;28;20211;-62
2022/06/12 02:44:15;;;;;;;1.23;1.13;;;;;;;;;;5042874;28;20208;-63
2022/06/12 02:47:07;;;;;;;2.10;1.03;;;;;;;;;;5040679;28;20660;-62
2022/06/12 02:49:56;;;;;;;1.40;1.30;;;;;;;;;;5040781;28;20239;-62
2022/06/12 02:52:50;;;;;;;2.17;1.30;;;;;;;;;;5043920;28;20793;-62
2022/06/12 02:55:44;;;;;;;1.97;1.33;;;;;;;;;;5038441;28;20237;-62
2022/06/12 02:58:37;;;;;;;1.43;1.30;;;;;;;;;;5037701;28;20220;-62
2022/06/12 03:01:31;;;;;;;1.77;1.00;;;;;;;;;;5039648;28;20229;-62
2022/06/12 03:04:24;;;;;;;1.70;1.10;;;;;;;;;;5036122;28;20204;-62
2022/06/12 03:07:11;;;;;;;1.17;1.03;;;;;;;;;;5041110;28;20232;-62
2022/06/12 03:10:03;;;;;;;1.13;1.03;;;;;;;;;;5036797;28;20221;-62
2022/06/12 03:12:51;;;;;;;1.40;1.10;;;;;;;;;;5040974;28;20205;-62
2022/06/12 03:15:42;;;;;;;2.10;1.17;;;;;;;;;;5042531;28;20331;-63
2022/06/12 03:18:33;;;;;;;1.20;1.10;;;;;;;;;;5039782;28;20216;-63
2022/06/12 03:21:30;;;;;;;2.73;1.50;;;;;;;;;;5043141;28;20211;-61
2022/06/12 03:24:44;;;;;;;1.00;0.97;;;;;;;;;;5036349;28;20294;-62
2022/06/12 03:27:44;;;;;;;1.07;0.97;;;;;;;;;;5042428;28;20696;-62
2022/06/12 03:30:40;;;;;;;2.00;1.13;;;;;;;;;;5041724;28;20232;-63
2022/06/12 03:33:34;;;;;;;3.47;1.57;;;;;;;;;;5040801;28;20338;-63
2022/06/12 03:36:26;;;;;;;1.67;1.00;;;;;;;;;;5040014;28;20567;-63
2022/06/12 03:39:17;;;;;;;1.43;1.30;;;;;;;;;;5039190;28;20213;-62
2022/06/12 03:42:12;;;;;;;1.33;1.23;;;;;;;;;;5039304;28;20597;-62
2022/06/12 03:45:04;;;;;;;2.87;1.30;;;;;;;;;;5032868;28;20231;-62
2022/06/12 03:48:01;;;;;;;1.50;1.33;;;;;;;;;;5032209;28;20292;-63
2022/06/12 03:50:54;;;;;;;1.40;1.27;;;;;;;;;;5033258;28;20211;-69
2022/06/12 03:53:46;;;;;;;2.10;1.10;;;;;;;;;;5031967;28;20209;-62
2022/06/12 03:59:46;;;;;;;1.77;1.17;;;;;;;;;;5036960;28;20203;-61
2022/06/12 04:02:35;;;;;;;1.50;1.10;;;;;;;;;;5037167;28;20219;-62
2022/06/12 04:05:27;;;;;;;2.33;1.43;;;;;;;;;;5036154;28;20230;-63
2022/06/12 04:08:19;;;;;;;1.67;1.37;;;;;;;;;;5035254;28;20279;-61
2022/06/12 04:11:09;;;;;;;2.43;1.60;;;;;;;;;;5037919;28;20261;-62
2022/06/12 04:13:58;;;;;;;1.63;1.23;;;;;;;;;;5037561;28;20214;-63
2022/06/12 04:16:48;;;;;;;1.73;1.23;;;;;;;;;;5044763;28;20225;-63
2022/06/12 04:19:58;;;;;;;1.70;1.27;;;;;;;;;;5039392;28;20213;-62
2022/06/12 04:22:52;;;;;;;1.83;1.50;;;;;;;;;;5041697;28;20199;-62
2022/06/12 04:25:43;;;;;;;2.03;1.53;;;;;;;;;;5038339;28;20325;-62
2022/06/12 04:28:35;;;;;;;2.27;1.40;;;;;;;;;;5038921;28;20688;-62
2022/06/12 04:31:22;;;;;;;1.80;1.70;;;;;;;;;;5044825;28;20218;-62
2022/06/12 04:34:15;;;;;;;2.33;1.63;;;;;;;;;;5045377;28;20211;-62
2022/06/12 04:37:10;;;;;;;2.83;1.97;;;;;;;;;;5038449;28;20226;-62
2022/06/12 04:39:59;;;;;;;2.30;1.37;;;;;;;;;;5037067;28;20629;-62
2022/06/12 04:42:46;;;;;;;2.40;1.50;;;;;;;;;;5036259;28;20265;-62
2022/06/12 04:45:33;;;;;;;2.43;1.43;;;;;;;;;;5037668;28;20230;-62
2022/06/12 04:48:27;;;;;;;2.50;1.57;;;;;;;;;;5036534;28;20203;-62
2022/06/12 04:51:14;;;;;;;3.30;1.80;;;;;;;;;;5035204;28;20217;-62
2022/06/12 04:54:01;;;;;;;2.60;1.70;;;;;;;;;;5039933;28;20235;-62
2022/06/12 04:56:49;;;;;;;2.53;1.53;;;;;;;;;;5028353;28;20253;-62
2022/06/12 04:59:37;;;;;;;2.77;1.60;;;;;;;;;;5041555;28;20680;-62
2022/06/12 05:02:24;;;;;;;2.27;1.40;;;;;;;;;;5042402;28;20284;-62
2022/06/12 05:05:11;;;;;;;2.57;1.93;;;;;;;;;;5040625;28;20671;-62
2022/06/12 05:07:58;;;;;;;3.43;2.03;;;;;;;;;;5041361;28;20292;-62
2022/06/12 05:10:46;;;;;;;2.40;2.10;;;;;;;;;;5042854;28;20600;-62
2022/06/12 05:13:34;;;;;;;2.43;1.60;;;;;;;;;;5043535;28;20659;-62
2022/06/12 05:16:29;;;;;;;3.00;1.80;;;;;;;;;;5042482;28;20216;-62
2022/06/12 05:19:19;;;;;;;4.33;1.80;;;;;;;;;;5039915;28;20607;-62
2022/06/12 05:22:07;;;;;;;3.60;1.67;;;;;;;;;;5043591;28;20735;-62
2022/06/12 05:24:54;;;;;;;2.50;1.87;;;;;;;;;;5037304;28;20667;-64
2022/06/12 05:27:42;;;;;;;3.47;1.90;;;;;;;;;;5034588;28;20268;-61
2022/06/12 05:30:33;;;;;;;3.33;1.90;;;;;;;;;;5033660;28;20213;-62
2022/06/12 05:33:20;;;;;;;4.60;1.83;;;;;;;;;;5038509;28;20210;-62
2022/06/12 05:36:07;;;;;;;3.17;1.60;;;;;;;;;;5045612;28;20682;-62
2022/06/12 05:38:55;;;;;;;3.03;1.80;;;;;;;;;;5037787;28;20219;-62
2022/06/12 05:41:42;;;;;;;3.17;1.73;;;;;;;;;;5039592;28;20690;-61
2022/06/12 05:44:29;;;;;;;2.43;1.53;;;;;;;;;;5035755;28;20213;-62
2022/06/12 05:47:18;;;;;;;2.33;1.80;;;;;;;;;;5040846;28;20828;-62
2022/06/12 05:50:05;;;;;;;4.13;2.10;;;;;;;;;;5041740;28;20237;-62
2022/06/12 05:52:54;;;;;;;2.88;1.70;;;;;;;;;;5035244;28;20203;-62
2022/06/12 05:55:41;;;;;;;3.20;1.92;;;;;;;;;;5035335;28;20215;-62
2022/06/12 05:58:30;;;;;;;3.08;1.48;;;;;;;;;;5037418;28;20219;-62
2022/06/12 06:01:19;;;;;;;2.58;1.88;;;;;;;;;;5041969;28;20232;-62
2022/06/12 06:04:08;;;;;;;3.97;1.90;;;;;;;;;;5038646;28;20256;-61
2022/06/12 06:06:58;;;;;;;2.42;1.40;;;;;;;;;;5040725;28;20223;-62
2022/06/12 06:09:45;;;;;;;2.47;1.83;;;;;;;;;;5041735;28;20211;-61
2022/06/12 06:12:33;;;;;;;2.90;1.70;;;;;;;;;;5042313;28;20224;-61
2022/06/12 06:15:20;;;;;;;2.47;1.73;;;;;;;;;;5040142;28;20731;-62
2022/06/12 06:18:08;;;;;;;2.53;1.83;;;;;;;;;;5042683;28;20209;-62
2022/06/12 06:20:56;;;;;;;2.23;1.57;;;;;;;;;;5042241;28;20217;-62
2022/06/12 06:23:43;;;;;;;3.40;1.80;;;;;;;;;;5044820;28;20581;-62
2022/06/12 06:26:30;;;;;;;2.93;1.90;;;;;;;;;;5041111;28;20225;-62
2022/06/12 06:29:17;;;;;;;3.63;1.90;;;;;;;;;;5039178;28;20268;-62
2022/06/12 06:32:07;;;;;;;2.83;1.77;;;;;;;;;;5040027;28;20206;-62
2022/06/12 06:34:54;;;;;;;3.10;1.88;;;;;;;;;;5040360;28;20224;-62
2022/06/12 06:37:43;;;;;;;1.98;1.55;;;;;;;;;;5042032;28;20215;-62
2022/06/12 06:40:32;;;;;;;1.60;1.50;;;;;;;;;;5044149;28;20250;-62
2022/06/12 06:43:19;;;;;;;2.25;1.40;;;;;;;;;;5040447;28;20615;-62
2022/06/12 06:46:14;;;;;;;4.45;1.95;;;;;;;;;;5047705;28;20308;-62
2022/06/12 06:49:03;;;;;;;3.38;1.75;;;;;;;;;;5040872;28;20715;-62
2022/06/12 06:51:50;;;;;;;3.45;2.22;;;;;;;;;;5041913;28;20220;-62
2022/06/12 06:54:39;;;;;;;2.33;1.58;;;;;;;;;;5042739;28;20260;-62
2022/06/12 06:57:26;;;;;;;2.85;1.73;;;;;;;;;;5042000;28;20221;-62
2022/06/12 07:00:17;;;;;;;3.63;1.88;;;;;;;;;;5038360;28;20210;-62
2022/06/12 07:03:04;;;;;;;2.63;2.00;;;;;;;;;;5045226;28;20207;-62
2022/06/12 07:05:52;;;;;;;3.17;2.15;;;;;;;;;;5037739;28;20311;-62
2022/06/12 07:08:39;;;;;;;2.85;1.88;;;;;;;;;;5041245;28;20745;-62
2022/06/12 07:11:28;;;;;;;2.10;1.75;;;;;;;;;;5042629;28;20258;-63
2022/06/12 07:14:15;;;;;;;3.58;1.92;;;;;;;;;;5044434;28;20211;-62
2022/06/12 07:17:02;;;;;;;2.42;1.90;;;;;;;;;;5038361;28;20560;-62
2022/06/12 07:19:49;;;;;;;2.78;1.90;;;;;;;;;;5045461;28;20243;-64
2022/06/12 07:22:36;;;;;;;2.92;1.77;;;;;;;;;;5039809;28;20211;-62
2022/06/12 07:25:24;;;;;;;2.60;1.92;;;;;;;;;;5041797;28;20201;-62
2022/06/12 07:28:13;;;;;;;2.83;1.98;;;;;;;;;;5044831;28;20270;-62
2022/06/12 07:31:00;;;;;;;3.38;2.03;;;;;;;;;;5039363;28;20226;-62
2022/06/12 07:33:47;;;;;;;2.80;1.75;;;;;;;;;;5038297;28;20212;-62
2022/06/12 07:36:36;;;;;;;2.22;1.40;;;;;;;;;;5041754;28;20571;-63
2022/06/12 07:39:32;;;;;;;3.38;1.73;;;;;;;;;;5046791;28;20251;-61
2022/06/12 07:42:19;;;;;;;3.58;2.00;;;;;;;;;;5038415;28;20203;-61
2022/06/12 07:45:08;;;;;;;2.50;1.77;;;;;;;;;;5042543;28;20211;-60
2022/06/12 07:47:55;;;;;;;2.33;1.85;;;;;;;;;;5037702;28;20232;-61
2022/06/12 07:50:43;;;;;;;2.83;1.85;;;;;;;;;;5036767;28;20232;-60
2022/06/12 07:53:31;;;;;;;2.40;1.58;;;;;;;;;;5034829;28;20204;-61
2022/06/12 07:56:20;;;;;;;2.70;1.80;;;;;;;;;;5044683;28;21054;-65
2022/06/12 07:59:08;;;;;;;2.70;1.98;;;;;;;;;;5040969;28;20578;-61
2022/06/12 08:01:57;;;;;;;3.30;1.80;;;;;;;;;;5035307;28;20574;-60
2022/06/12 08:04:44;;;;;;;2.35;1.55;;;;;;;;;;5040437;28;20283;-61
2022/06/12 08:07:31;;;;;;;2.95;1.88;;;;;;;;;;5043608;28;20247;-61
2022/06/12 08:10:18;;;;;;;3.83;2.28;;;;;;;;;;5040234;28;20218;-61
2022/06/12 08:13:07;;;;;;;2.38;2.17;;;;;;;;;;5038710;28;20204;-61
2022/06/12 08:15:56;;;;;;;2.88;1.98;;;;;;;;;;5039516;28;20583;-61
2022/06/12 08:18:44;;;;;;;2.85;2.00;;;;;;;;;;5038645;28;20282;-60
2022/06/12 08:21:32;;;;;;;2.63;1.70;;;;;;;;;;5039218;28;20277;-61
2022/06/12 08:24:19;;;;;;;2.38;1.75;;;;;;;;;;5038420;28;20255;-60
2022/06/12 08:27:06;;;;;;;3.00;1.90;;;;;;;;;;5039299;28;20255;-60
2022/06/12 08:29:53;;;;;;;3.92;2.00;;;;;;;;;;5042385;28;20210;-60
2022/06/12 08:32:42;;;;;;;2.92;1.95;;;;;;;;;;5042053;28;20212;-60
2022/06/12 08:35:32;;;;;;;2.72;2.30;;;;;;;;;;5042884;28;20205;-61
2022/06/12 08:38:20;;;;;;;3.17;2.75;;;;;;;;;;5042555;28;20198;-60
2022/06/12 08:41:15;;;;;;;3.10;2.80;;;;;;;;;;5035943;28;20284;-61
2022/06/12 08:44:08;;;;;;;2.97;2.42;;;;;;;;;;5035231;28;20671;-60
2022/06/12 08:46:59;;;;;;;4.68;2.72;;;;;;;;;;5033977;28;20310;-60
2022/06/12 08:49:51;;;;;;;3.45;2.42;;;;;;;;;;5040046;28;20206;-60
2022/06/12 08:52:43;;;;;;;3.67;2.90;;;;;;;;;;5033286;28;20231;-63
2022/06/12 08:55:37;;;;;;;2.83;2.55;;;;;;;;;;5037225;28;20341;-63
2022/06/12 08:58:29;;;;;;;4.50;2.88;;;;;;;;;;5033724;28;20218;-63
2022/06/12 09:01:16;;;;;;;4.03;2.65;;;;;;;;;;5043782;28;20231;-63
2022/06/12 09:04:04;;;;;;;2.92;2.63;;;;;;;;;;5042938;28;20220;-63
2022/06/12 09:06:57;;;;;;;3.25;2.70;;;;;;;;;;5038730;28;20221;-63
2022/06/12 09:09:50;;;;;;;2.60;2.40;;;;;;;;;;5038427;28;20585;-61
2022/06/12 09:12:45;;;;;;;2.47;2.10;;;;;;;;;;5042102;28;20213;-61
2022/06/12 09:15:37;;;;;;;3.45;2.88;;;;;;;;;;5039432;28;20247;-60
2022/06/12 09:18:37;;;;;;;2.78;2.22;;;;;;;;;;5040081;28;20201;-61
2022/06/12 09:21:30;;;;;;;3.70;2.70;;;;;;;;;;5038672;28;20274;-61
2022/06/12 09:24:29;;;;;;;2.22;2.00;;;;;;;;;;5042942;28;20672;-60
2022/06/12 09:27:26;;;;;;;3.85;2.58;;;;;;;;;;5037602;28;20242;-60
2022/06/12 09:30:19;;;;;;;2.58;2.17;;;;;;;;;;5039757;28;20204;-60
2022/06/12 09:33:14;;;;;;;3.88;2.17;;;;;;;;;;5040629;28;20300;-60
2022/06/12 09:36:19;;;;;;;2.45;2.25;;;;;;;;;;5037248;28;20201;-60
2022/06/12 09:39:18;;;;;;;4.07;2.78;;;;;;;;;;5048402;28;20207;-60
2022/06/12 09:42:19;;;;;;;2.83;2.40;;;;;;;;;;5041317;28;20215;-60
2022/06/12 09:45:15;;;;;;;2.63;2.10;;;;;;;;;;5035224;28;20210;-60
2022/06/12 09:48:17;;;;;;;2.35;2.15;;;;;;;;;;5044090;28;20303;-62
2022/06/12 09:51:15;;;;;;;2.60;2.08;;;;;;;;;;5040943;28;20203;-61
2022/06/12 09:54:23;;;;;;;2.08;1.90;;;;;;;;;;5040047;28;20246;-60
2022/06/12 09:57:18;;;;;;;2.47;2.28;;;;;;;;;;5039433;28;20261;-60
2022/06/12 10:00:11;;;;;;;3.03;2.10;;;;;;;;;;5043262;28;20204;-60
2022/06/12 10:03:04;;;;;;;4.07;2.33;;;;;;;;;;5043426;28;20204;-60
2022/06/12 10:05:56;;;;;;;2.70;1.67;;;;;;;;;;5039472;28;20216;-60
2022/06/12 10:08:50;;;;;;;2.13;1.98;;;;;;;;;;5047681;28;20700;-60
2022/06/12 10:11:41;;;;;;;3.03;1.98;;;;;;;;;;5039871;28;20290;-60
2022/06/12 10:14:33;;;;;;;2.90;2.35;;;;;;;;;;5040290;28;21952;-60
2022/06/12 10:17:26;;;;;;;2.53;2.00;;;;;;;;;;5035310;28;20219;-63
2022/06/12 10:20:16;;;;;;;7.07;1.90;;;;;;;;;;5044309;28;20705;-61
2022/06/12 10:23:03;;;;;;;3.70;2.13;;;;;;;;;;5042884;28;20296;-61
2022/06/12 10:25:54;;;;;;;1.80;1.58;;;;;;;;;;5039212;28;20619;-61
2022/06/12 10:28:42;;;;;;;2.47;2.00;;;;;;;;;;5043738;28;20294;-61
2022/06/12 10:31:33;;;;;;;3.13;1.83;;;;;;;;;;5036721;28;20224;-61
2022/06/12 10:34:24;;;;;;;2.22;1.92;;;;;;;;;;5044924;28;20215;-61
2022/06/12 10:37:17;;;;;;;4.30;1.85;;;;;;;;;;5045330;28;20568;-61
2022/06/12 10:40:06;;;;;;;3.38;2.17;;;;;;;;;;5041403;28;20231;-61
2022/06/12 10:42:57;;;;;;;2.42;1.92;;;;;;;;;;5038865;28;20215;-61
2022/06/12 10:45:45;;;;;;;3.10;1.60;;;;;;;;;;5039495;28;20204;-61
2022/06/12 10:48:35;;;;;;;2.50;1.73;;;;;;;;;;5039631;28;20232;-61
2022/06/12 10:51:27;;;;;;;1.80;1.50;;;;;;;;;;5041058;28;20211;-65
2022/06/12 10:54:18;;;;;;;2.28;1.52;;;;;;;;;;5044487;28;20286;-61
2022/06/12 10:57:11;;;;;;;2.97;1.85;;;;;;;;;;5041305;28;20201;-61
2022/06/12 11:00:04;;;;;;;1.55;1.45;;;;;;;;;;5043800;28;20559;-60
2022/06/12 11:03:16;;;;;;;3.10;1.95;;;;;;;;;;5043761;28;20208;-61
2022/06/12 11:06:12;;;;;;;2.00;1.70;;;;;;;;;;5040313;28;20311;-60
2022/06/12 11:09:22;;;;;;;1.48;1.30;;;;;;;;;;5039417;28;20215;-61
2022/06/12 11:12:33;;;;;;;1.83;1.67;;;;;;;;;;5043684;28;20222;-60
2022/06/12 11:15:35;;;;;;;2.55;1.88;;;;;;;;;;5042141;28;20207;-61
2022/06/12 11:18:28;;;;;;;2.33;1.80;;;;;;;;;;5036703;28;20207;-61
2022/06/12 11:21:25;;;;;;;4.47;1.98;;;;;;;;;;5040728;28;20208;-61
2022/06/12 11:24:18;;;;;;;1.55;1.38;;;;;;;;;;5041946;28;20212;-61
2022/06/12 11:27:34;;;;;;;2.97;1.90;;;;;;;;;;5040561;28;20673;-61
2022/06/12 11:30:34;;;;;;;2.67;1.73;;;;;;;;;;5048007;28;20204;-61
2022/06/12 11:33:47;;;;;;;1.63;1.52;;;;;;;;;;5043004;28;20221;-61
2022/06/12 11:36:43;;;;;;;2.58;1.67;;;;;;;;;;5041183;28;20617;-61
2022/06/12 11:39:42;;;;;;;2.30;1.38;;;;;;;;;;5041545;28;20208;-61
2022/06/12 11:42:45;;;;;;;2.08;1.60;;;;;;;;;;5035958;28;20251;-61
2022/06/12 11:45:42;;;;;;;1.98;1.33;;;;;;;;;;5040766;28;20212;-61
2022/06/12 11:48:51;;;;;;;2.17;1.50;;;;;;;;;;5040453;28;20601;-61
2022/06/12 11:51:50;;;;;;;2.08;1.67;;;;;;;;;;5038080;28;20668;-62
2022/06/12 11:54:59;;;;;;;2.10;1.80;;;;;;;;;;5043915;28;20217;-61
2022/06/12 11:58:08;;;;;;;1.75;1.42;;;;;;;;;;5038885;28;20200;-61
2022/06/12 12:01:01;;;;;;;2.45;1.80;;;;;;;;;;5042671;28;20660;-61
2022/06/12 12:04:17;;;;;;;1.85;1.42;;;;;;;;;;5040612;28;20248;-61
2022/06/12 12:07:16;;;;;;;1.98;1.60;;;;;;;;;;5039429;28;20223;-64
2022/06/12 12:10:19;;;;;;;2.35;1.48;;;;;;;;;;5040689;28;20572;-61
2022/06/12 12:13:12;;;;;;;1.45;1.30;;;;;;;;;;5041005;28;20208;-62
2022/06/12 12:16:02;;;;;;;2.42;1.70;;;;;;;;;;5043571;28;20227;-62
2022/06/12 12:18:54;;;;;;;2.33;1.40;;;;;;;;;;5039594;28;20216;-61
2022/06/12 12:21:45;;;;;;;2.38;1.90;;;;;;;;;;5048195;28;20322;-62
2022/06/12 12:24:36;;;;;;;1.50;1.40;;;;;;;;;;5040091;28;20208;-61
2022/06/12 12:27:28;;;;;;;2.40;1.92;;;;;;;;;;5036566;28;20239;-61
2022/06/12 12:30:20;;;;;;;2.67;1.67;;;;;;;;;;5044273;28;20601;-62
2022/06/12 12:33:19;;;;;;;2.38;1.67;;;;;;;;;;5043432;28;20216;-61
2022/06/12 12:42:39;;;;;;;1.50;1.40;;;;;;;;;;5011125;28;20214;-62
2022/06/12 12:45:32;;;;;;;1.88;1.63;;;;;;;;;;5037867;28;20208;-62
2022/06/12 12:48:19;;;;;;;2.05;1.65;;;;;;;;;;5034770;28;20231;-63
2022/06/12 12:51:07;;;;;;;2.63;1.60;;;;;;;;;;5037023;28;20297;-62
2022/06/12 12:54:06;;;;;;;1.92;1.42;;;;;;;;;;5043031;28;21205;-62
2022/06/12 12:57:01;;;;;;;2.47;1.50;;;;;;;;;;5037083;28;20238;-61
2022/06/12 12:59:52;;;;;;;1.83;0.90;;;;;;;;;;5039274;28;20199;-67
2022/06/12 13:02:48;;;;;;;1.73;1.58;;;;;;;;;;5042933;28;20219;-62
2022/06/12 13:05:52;;;;;;;2.00;1.55;;;;;;;;;;5035616;28;20216;-62
2022/06/12 13:08:54;;;;;;;2.22;1.50;;;;;;;;;;5037963;28;20227;-61
2022/06/12 13:11:53;;;;;;;2.65;1.52;;;;;;;;;;5043429;28;20211;-62
2022/06/12 13:14:57;;;;;;;2.15;1.58;;;;;;;;;;5036855;28;20230;-62
2022/06/12 13:17:53;;;;;;;2.55;1.60;;;;;;;;;;5045987;28;20313;-62
2022/06/12 13:20:49;;;;;;;2.83;1.90;;;;;;;;;;5036744;28;20700;-62
2022/06/12 13:23:59;;;;;;;2.22;1.42;;;;;;;;;;5046310;28;20339;-61
2022/06/12 13:26:46;;;;;;;2.08;1.35;;;;;;;;;;5040588;28;20208;-62
2022/06/12 13:29:42;;;;;;;1.63;1.40;;;;;;;;;;5028159;28;20239;-62
2022/06/12 13:32:33;;;;;;;1.50;1.10;;;;;;;;;;5022834;28;20207;-62
2022/06/12 13:35:29;;;;;;;1.90;1.42;;;;;;;;;;5020037;28;20204;-62
2022/06/12 13:38:21;;;;;;;1.80;1.25;;;;;;;;;;5025265;28;20201;-62
2022/06/12 13:41:24;;;;;;;1.40;1.30;;;;;;;;;;5022076;28;20211;-65
2022/06/12 13:44:28;;;;;;;2.05;1.45;;;;;;;;;;5020887;28;20208;-61
2022/06/12 13:47:24;;;;;;;1.33;1.23;;;;;;;;;;5025542;28;20213;-61
2022/06/12 13:50:21;;;;;;;1.60;1.20;;;;;;;;;;5020533;28;20619;-61
2022/06/12 13:53:17;;;;;;;2.15;1.77;;;;;;;;;;5027487;28;20314;-62
2022/06/12 13:56:05;;;;;;;2.42;1.63;;;;;;;;;;5027831;28;20211;-62
2022/06/12 13:58:55;;;;;;;1.63;1.30;;;;;;;;;;5027337;28;20203;-62
2022/06/12 14:01:42;;;;;;;1.88;1.15;;;;;;;;;;5020399;28;20236;-61
2022/06/12 14:04:30;;;;;;;2.05;1.63;;;;;;;;;;5024945;28;20220;-61
2022/06/12 14:07:20;;;;;;;1.88;1.48;;;;;;;;;;5024310;28;20273;-62
2022/06/12 14:10:14;;;;;;;1.80;1.70;;;;;;;;;;5022035;28;20658;-62
2022/06/12 14:13:07;;;;;;;2.20;1.75;;;;;;;;;;5020303;28;20208;-61
2022/06/12 14:15:54;;;;;;;1.55;1.30;;;;;;;;;;5025686;28;20302;-62
2022/06/12 14:18:54;;;;;;;2.92;1.65;;;;;;;;;;5013034;28;20596;-61
2022/06/12 14:21:43;;;;;;;2.70;1.55;;;;;;;;;;5023809;28;20218;-62
2022/06/12 14:24:34;;;;;;;1.60;1.40;;;;;;;;;;5020686;28;20780;-61
2022/06/12 14:27:24;;;;;;;2.00;1.33;;;;;;;;;;5024605;28;20236;-61
2022/06/12 14:30:40;;;;;;;1.42;1.33;;;;;;;;;;5046045;28;20230;-61
2022/06/12 14:33:33;;;;;;;2.15;1.70;;;;;;;;;;5041560;28;20273;-62
2022/06/12 14:36:29;;;;;;;2.05;1.80;;;;;;;;;;5041234;28;20667;-61
2022/06/12 14:39:22;;;;;;;2.65;1.60;;;;;;;;;;5037149;28;20205;-63
2022/06/12 14:42:15;;;;;;;1.40;1.13;;;;;;;;;;5045252;28;20222;-61
2022/06/12 14:45:02;;;;;;;1.75;1.50;;;;;;;;;;5041166;28;20208;-62
2022/06/12 14:47:51;;;;;;;2.73;1.80;;;;;;;;;;5041197;28;20579;-61
2022/06/12 14:50:37;;;;;;;2.30;1.77;;;;;;;;;;5045321;28;20208;-61
2022/06/12 14:53:25;;;;;;;1.73;1.33;;;;;;;;;;5039039;28;20356;-61
2022/06/12 14:56:15;;;;;;;1.90;1.30;;;;;;;;;;5037244;28;20700;-62
2022/06/12 14:59:05;;;;;;;1.50;1.40;;;;;;;;;;5046068;28;20222;-61
2022/06/12 15:01:53;;;;;;;1.30;1.20;;;;;;;;;;5040376;28;20225;-62
2022/06/12 15:04:40;;;;;;;1.30;1.20;;;;;;;;;;5037206;28;20576;-64
2022/06/12 15:07:27;;;;;;;2.07;1.47;;;;;;;;;;5043479;28;20215;-61
2022/06/12 15:10:14;;;;;;;1.73;1.20;;;;;;;;;;5042873;28;20210;-61
2022/06/12 15:13:01;;;;;;;1.87;1.20;;;;;;;;;;5040348;28;20214;-62
2022/06/12 15:15:50;;;;;;;1.97;1.40;;;;;;;;;;5040841;28;20211;-61
2022/06/12 15:18:37;;;;;;;1.57;1.20;;;;;;;;;;5036101;28;20234;-62
2022/06/12 15:21:26;;;;;;;1.63;1.53;;;;;;;;;;5043991;28;20686;-60
2022/06/12 15:24:16;;;;;;;1.40;1.27;;;;;;;;;;5034952;28;20231;-62
2022/06/12 15:30:15;;;;;;;2.43;1.60;;;;;;;;;;5042563;28;20662;-63
2022/06/12 15:33:03;;;;;;;1.30;1.20;;;;;;;;;;5037771;28;20217;-61
2022/06/12 15:35:50;;;;;;;2.17;0.90;;;;;;;;;;5040143;28;20211;-61
2022/06/12 15:38:38;;;;;;;1.40;1.30;;;;;;;;;;5042056;28;20197;-61
2022/06/12 15:41:25;;;;;;;1.63;1.23;;;;;;;;;;5044794;28;20214;-61
2022/06/12 15:44:13;;;;;;;1.47;1.37;;;;;;;;;;5045336;28;20685;-61
2022/06/12 15:47:00;;;;;;;2.13;1.27;;;;;;;;;;5042781;28;20257;-61
2022/06/12 15:49:48;;;;;;;1.50;1.40;;;;;;;;;;5049822;28;20230;-61
2022/06/12 15:52:35;;;;;;;2.03;1.50;;;;;;;;;;5049546;28;20229;-61
2022/06/12 15:55:22;;;;;;;1.20;1.20;;;;;;;;;;5051982;28;20760;-61
2022/06/12 15:58:09;;;;;;;1.40;1.20;;;;;;;;;;5048498;28;20204;-62
2022/06/12 16:00:56;;;;;;;1.63;1.50;;;;;;;;;;5058653;28;20235;-61
2022/06/12 16:03:43;;;;;;;2.03;1.40;;;;;;;;;;5053881;28;20213;-61
2022/06/12 16:06:32;;;;;;;1.73;1.37;;;;;;;;;;5051289;28;20228;-61
2022/06/12 16:09:19;;;;;;;1.30;1.20;;;;;;;;;;5055067;28;20222;-62
2022/06/12 16:12:07;;;;;;;1.90;1.47;;;;;;;;;;5054041;28;20216;-62
2022/06/12 16:14:54;;;;;;;1.97;1.40;;;;;;;;;;5051859;28;20246;-62
2022/06/12 16:17:41;;;;;;;1.40;1.23;;;;;;;;;;5052272;28;20601;-61
2022/06/12 16:20:28;;;;;;;1.40;1.30;;;;;;;;;;5044007;28;20284;-62
2022/06/12 16:23:18;;;;;;;1.60;1.20;;;;;;;;;;5054467;28;20212;-62
2022/06/12 16:26:05;;;;;;;1.73;1.03;;;;;;;;;;5047412;28;20258;-62
2022/06/12 16:28:52;;;;;;;1.00;0.97;;;;;;;;;;5041890;28;20241;-61
2022/06/12 16:31:41;;;;;;;1.40;1.30;;;;;;;;;;5045691;28;20213;-62
2022/06/12 16:34:28;;;;;;;2.00;1.50;;;;;;;;;;5042225;28;20297;-62
2022/06/12 16:37:15;;;;;;;2.27;1.30;;;;;;;;;;5039482;28;20206;-62
2022/06/12 16:40:04;;;;;;;1.30;1.03;;;;;;;;;;5036995;28;20205;-62
2022/06/12 16:42:51;;;;;;;1.70;1.60;;;;;;;;;;5040061;28;20258;-62
2022/06/12 16:45:38;;;;;;;1.70;1.23;;;;;;;;;;5039459;28;20297;-62
2022/06/12 16:48:26;;;;;;;2.00;1.50;;;;;;;;;;5035410;28;20672;-62
2022/06/12 16:51:14;;;;;;;1.73;1.33;;;;;;;;;;5033807;28;20694;-62
2022/06/12 16:54:01;;;;;;;1.67;1.40;;;;;;;;;;5038836;28;20210;-61
2022/06/12 16:56:49;;;;;;;1.40;1.30;;;;;;;;;;5036369;28;21221;-62
2022/06/12 16:59:36;;;;;;;1.57;1.30;;;;;;;;;;5039019;28;20219;-65
2022/06/12 17:02:26;;;;;;;1.43;1.27;;;;;;;;;;5039986;28;20245;-61
2022/06/12 17:05:14;;;;;;;1.30;1.00;;;;;;;;;;5033442;28;20219;-61
2022/06/12 17:08:01;;;;;;;1.50;1.40;;;;;;;;;;5041816;28;20234;-61
2022/06/12 17:10:49;;;;;;;1.30;1.20;;;;;;;;;;5038860;28;20238;-61
2022/06/12 17:13:37;;;;;;;1.40;1.10;;;;;;;;;;5041838;28;20208;-61
2022/06/12 17:16:25;;;;;;;1.03;1.00;;;;;;;;;;5036198;28;20677;-62
2022/06/12 17:22:16;;;;;;;1.37;1.20;;;;;;;;;;5038365;28;20231;-62
2022/06/12 17:25:05;;;;;;;1.53;1.43;;;;;;;;;;5039455;28;20771;-61
2022/06/12 17:27:52;;;;;;;0.97;0.90;;;;;;;;;;5039458;28;20263;-62
2022/06/12 17:30:41;;;;;;;1.73;1.10;;;;;;;;;;5041299;28;20264;-62
2022/06/12 17:33:28;;;;;;;1.30;1.20;;;;;;;;;;5040725;28;20287;-62